createdAt,value
2023-05-12T00:01:40.581Z,9.60
2023-05-12T00:04:13.086Z,9.60
2023-05-12T00:06:45.855Z,9.50
2023-05-12T00:09:18.325Z,9.50
2023-05-12T00:11:51.128Z,9.40
2023-05-12T00:14:23.575Z,9.40
2023-05-12T00:16:56.637Z,9.40
2023-05-12T00:19:29.137Z,9.30
2023-05-12T00:22:02.712Z,9.30
2023-05-12T00:24:35.171Z,9.20
2023-05-12T00:27:07.989Z,9.30
2023-05-12T00:29:40.545Z,9.20
2023-05-12T00:32:13.386Z,9.10
2023-05-12T00:34:46.065Z,9.10
2023-05-12T00:37:18.832Z,9.00
2023-05-12T00:39:51.339Z,9.00
2023-05-12T00:42:24.325Z,9.00
2023-05-12T00:44:56.786Z,8.90
2023-05-12T00:47:30.418Z,8.80
2023-05-12T00:50:06.899Z,8.80
2023-05-12T00:52:39.790Z,8.80
2023-05-12T00:55:12.277Z,8.80
2023-05-12T00:57:45.743Z,8.70
2023-05-12T01:00:18.840Z,8.70
2023-05-12T01:02:51.972Z,8.70
2023-05-12T01:05:30.853Z,8.70
2023-05-12T01:08:04.334Z,8.70
2023-05-12T01:10:37.015Z,8.70
2023-05-12T01:13:09.774Z,8.70
2023-05-12T01:15:49.028Z,8.60
2023-05-12T01:18:23.440Z,8.60
2023-05-12T01:20:56.726Z,8.60
2023-05-12T01:23:36.130Z,8.50
2023-05-12T01:26:10.006Z,8.50
2023-05-12T01:28:43.100Z,8.50
2023-05-12T01:31:17.463Z,8.50
2023-05-12T01:33:51.073Z,8.50
2023-05-12T01:36:23.556Z,8.50
2023-05-12T01:38:56.336Z,8.40
2023-05-12T01:41:28.785Z,8.30
2023-05-12T01:44:01.810Z,8.30
2023-05-12T01:46:34.375Z,8.20
2023-05-12T01:49:07.224Z,8.20
2023-05-12T01:51:39.902Z,8.20
2023-05-12T01:54:12.737Z,8.20
2023-05-12T01:56:45.438Z,8.20
2023-05-12T01:59:18.594Z,8.10
2023-05-12T02:01:51.128Z,8.10
2023-05-12T02:04:23.947Z,8.00
2023-05-12T02:06:56.464Z,8.00
2023-05-12T02:09:29.260Z,8.00
2023-05-12T02:12:02.446Z,8.00
2023-05-12T02:14:35.453Z,8.00
2023-05-12T02:17:07.948Z,8.00
2023-05-12T02:19:41.352Z,7.90
2023-05-12T02:22:13.864Z,7.90
2023-05-12T02:24:46.887Z,7.80
2023-05-12T02:27:19.437Z,7.80
2023-05-12T02:29:52.285Z,7.70
2023-05-12T02:32:28.184Z,7.70
2023-05-12T02:35:01.198Z,7.60
2023-05-12T02:37:33.771Z,7.60
2023-05-12T02:40:07.853Z,7.60
2023-05-12T02:42:40.390Z,7.50
2023-05-12T02:45:13.253Z,7.50
2023-05-12T02:47:45.748Z,7.50
2023-05-12T02:50:18.860Z,7.50
2023-05-12T02:52:51.828Z,7.60
2023-05-12T02:55:24.931Z,7.60
2023-05-12T02:57:57.531Z,7.70
2023-05-12T03:00:30.340Z,7.70
2023-05-12T03:03:02.838Z,7.70
2023-05-12T03:05:35.622Z,7.70
2023-05-12T03:08:08.109Z,7.70
2023-05-12T03:10:40.902Z,7.70
2023-05-12T03:13:13.437Z,7.70
2023-05-12T03:15:46.502Z,7.80
2023-05-12T03:18:18.967Z,7.80
2023-05-12T03:20:51.880Z,7.80
2023-05-12T03:23:24.651Z,7.90
2023-05-12T03:25:57.416Z,7.90
2023-05-12T03:28:30.028Z,8.00
2023-05-12T03:31:02.836Z,8.00
2023-05-12T03:33:35.406Z,8.00
2023-05-12T03:36:08.419Z,8.10
2023-05-12T03:38:40.954Z,8.10
2023-05-12T03:41:13.702Z,8.20
2023-05-12T03:43:46.628Z,8.20
2023-05-12T03:46:19.436Z,8.40
2023-05-12T03:48:52.336Z,8.50
2023-05-12T03:51:26.085Z,8.60
2023-05-12T03:53:58.794Z,8.70
2023-05-12T03:56:31.748Z,8.80
2023-05-12T03:59:04.223Z,8.90
2023-05-12T04:01:36.966Z,9.00
2023-05-12T04:04:09.492Z,9.20
2023-05-12T04:06:42.297Z,9.30
2023-05-12T04:09:16.672Z,9.40
2023-05-12T04:11:49.475Z,9.50
2023-05-12T04:14:31.843Z,9.60
2023-05-12T04:17:12.243Z,9.70
2023-05-12T04:19:44.689Z,9.80
2023-05-12T04:22:17.509Z,9.80
2023-05-12T04:24:50.338Z,9.80
2023-05-12T04:27:23.090Z,9.90
2023-05-12T04:29:55.578Z,9.90
2023-05-12T04:32:28.466Z,10.00
2023-05-12T04:35:01.188Z,10.00
2023-05-12T04:37:34.504Z,10.10
2023-05-12T04:40:08.963Z,10.20
2023-05-12T04:42:41.760Z,10.30
2023-05-12T04:45:14.270Z,10.40
2023-05-12T04:47:47.153Z,10.50
2023-05-12T04:50:19.761Z,10.50
2023-05-12T04:52:52.567Z,10.60
2023-05-12T04:55:25.160Z,10.70
2023-05-12T04:57:57.894Z,10.80
2023-05-12T05:00:30.457Z,10.90
2023-05-12T05:03:04.138Z,11.00
2023-05-12T05:06:01.336Z,11.10
2023-05-12T05:08:40.495Z,11.20
2023-05-12T05:11:12.963Z,11.30
2023-05-12T05:13:45.816Z,11.40
2023-05-12T05:16:18.840Z,11.60
2023-05-12T05:18:51.811Z,11.60
2023-05-12T05:21:24.297Z,11.70
2023-05-12T05:23:57.033Z,11.80
2023-05-12T05:26:29.517Z,11.90
2023-05-12T05:29:02.614Z,12.00
2023-05-12T05:31:35.245Z,12.10
2023-05-12T05:34:08.064Z,12.20
2023-05-12T05:36:40.637Z,12.30
2023-05-12T05:39:13.521Z,12.40
2023-05-12T05:41:45.976Z,12.50
2023-05-12T05:44:18.785Z,12.60
2023-05-12T05:46:51.522Z,12.70
2023-05-12T05:49:24.334Z,12.70
2023-05-12T05:51:56.836Z,12.90
2023-05-12T05:54:29.573Z,12.90
2023-05-12T05:57:03.146Z,13.00
2023-05-12T05:59:35.897Z,13.10
2023-05-12T06:02:08.593Z,13.20
2023-05-12T06:04:41.389Z,13.30
2023-05-12T06:07:13.994Z,13.40
2023-05-12T06:09:46.735Z,13.50
2023-05-12T06:12:19.282Z,13.70
2023-05-12T06:14:52.014Z,13.80
2023-05-12T06:17:24.590Z,13.90
2023-05-12T06:19:57.323Z,14.00
2023-05-12T06:22:29.800Z,14.10
2023-05-12T06:25:02.797Z,14.20
2023-05-12T06:27:35.402Z,14.30
2023-05-12T06:30:09.570Z,14.50
2023-05-12T06:32:42.190Z,14.60
2023-05-12T06:35:15.045Z,14.70
2023-05-12T06:37:50.883Z,14.80
2023-05-12T06:40:23.744Z,14.90
2023-05-12T06:42:56.379Z,15.00
2023-05-12T06:45:29.126Z,15.20
2023-05-12T06:48:03.364Z,15.30
2023-05-12T06:50:36.601Z,15.40
2023-05-12T06:53:09.274Z,15.50
2023-05-12T06:55:43.944Z,15.60
2023-05-12T06:58:16.573Z,15.70
2023-05-12T07:00:49.306Z,15.90
2023-05-12T07:03:22.014Z,15.90
2023-05-12T07:05:54.861Z,16.10
2023-05-12T07:08:27.358Z,16.10
2023-05-12T07:11:01.105Z,16.20
2023-05-12T07:13:33.622Z,16.30
2023-05-12T07:16:06.807Z,16.40
2023-05-12T07:18:39.342Z,16.50
2023-05-12T07:21:13.146Z,16.60
2023-05-12T07:23:45.867Z,16.60
2023-05-12T07:26:18.754Z,16.70
2023-05-12T07:28:51.306Z,16.70
2023-05-12T07:31:24.169Z,16.70
2023-05-12T07:33:56.942Z,16.80
2023-05-12T07:36:29.783Z,16.80
2023-05-12T07:39:02.232Z,16.90
2023-05-12T07:41:35.047Z,16.90
2023-05-12T07:44:07.577Z,17.00
2023-05-12T07:46:40.411Z,17.10
2023-05-12T07:49:12.952Z,17.10
2023-05-12T07:51:45.739Z,17.20
2023-05-12T07:54:18.258Z,17.20
2023-05-12T07:56:51.643Z,17.30
2023-05-12T07:59:24.121Z,17.40
2023-05-12T08:01:56.953Z,17.40
2023-05-12T08:04:29.674Z,17.50
2023-05-12T08:07:02.444Z,17.60
2023-05-12T08:09:35.028Z,17.70
2023-05-12T08:12:07.981Z,17.80
2023-05-12T08:14:40.576Z,17.80
2023-05-12T08:17:13.713Z,17.80
2023-05-12T08:19:46.277Z,17.90
2023-05-12T08:22:19.107Z,17.90
2023-05-12T08:24:52.816Z,18.00
2023-05-12T08:27:25.759Z,18.10
2023-05-12T08:29:58.710Z,18.10
2023-05-12T08:32:32.057Z,18.20
2023-05-12T08:35:05.016Z,18.30
2023-05-12T08:37:37.840Z,18.40
2023-05-12T08:40:21.061Z,18.50
2023-05-12T08:43:01.757Z,18.60
2023-05-12T08:45:38.224Z,18.60
2023-05-12T08:48:13.605Z,18.60
2023-05-12T08:50:48.603Z,18.60
2023-05-12T08:53:24.858Z,18.60
2023-05-12T08:58:54.630Z,18.70
2023-05-12T09:01:27.433Z,18.70
2023-05-12T09:04:00.370Z,18.80
2023-05-12T09:06:33.797Z,18.80
2023-05-12T09:09:07.902Z,18.90
2023-05-12T09:11:42.046Z,18.90
2023-05-12T09:14:25.560Z,19.00
2023-05-12T09:17:03.614Z,19.00
2023-05-12T09:19:36.414Z,19.10
2023-05-12T09:22:14.770Z,19.20
2023-05-12T09:24:47.577Z,19.20
2023-05-12T09:27:30.116Z,19.20
2023-05-12T09:30:02.921Z,19.20
2023-05-12T09:32:39.362Z,19.20
2023-05-12T09:35:12.655Z,19.20
2023-05-12T09:37:47.272Z,19.30
2023-05-12T09:40:20.071Z,19.40
2023-05-12T09:42:52.954Z,19.30
2023-05-12T09:45:25.857Z,19.40
2023-05-12T09:48:11.067Z,19.40
2023-05-12T09:50:50.476Z,19.50
2023-05-12T09:53:23.108Z,19.50
2023-05-12T09:55:55.900Z,19.60
2023-05-12T09:58:29.206Z,19.70
2023-05-12T10:03:40.714Z,19.80
2023-05-12T10:06:16.301Z,19.80
2023-05-12T10:09:15.902Z,19.80
2023-05-12T10:11:53.527Z,19.80
2023-05-12T10:14:27.068Z,19.80
2023-05-12T10:17:00.468Z,19.80
2023-05-12T10:19:33.239Z,19.80
2023-05-12T10:22:09.889Z,19.80
2023-05-12T10:24:42.766Z,19.70
2023-05-12T10:27:17.285Z,19.80
2023-05-12T10:29:53.733Z,19.70
2023-05-12T10:32:27.192Z,19.70
2023-05-12T10:35:10.459Z,19.70
2023-05-12T10:37:44.573Z,19.70
2023-05-12T10:40:25.575Z,19.70
2023-05-12T10:43:02.100Z,19.80
2023-05-12T10:45:37.564Z,19.80
2023-05-12T10:48:15.550Z,19.80
2023-05-12T10:50:54.689Z,19.90
2023-05-12T10:53:38.045Z,19.90
2023-05-12T10:56:26.721Z,20.00
2023-05-12T10:59:11.949Z,20.00
2023-05-12T11:02:02.863Z,20.10
2023-05-12T11:04:48.862Z,20.20
2023-05-12T11:07:24.595Z,20.20
2023-05-12T11:10:01.466Z,20.30
2023-05-12T11:12:38.100Z,20.30
2023-05-12T11:15:12.266Z,20.30
2023-05-12T11:17:46.007Z,20.30
2023-05-12T11:20:26.695Z,20.30
2023-05-12T11:23:00.150Z,20.30
2023-05-12T11:25:33.128Z,20.40
2023-05-12T11:28:11.731Z,20.40
2023-05-12T11:30:55.423Z,20.40
2023-05-12T11:33:28.365Z,20.20
2023-05-12T11:36:05.500Z,20.30
2023-05-12T11:38:38.272Z,20.30
2023-05-12T11:41:11.097Z,20.40
2023-05-12T11:43:43.713Z,20.50
2023-05-12T11:46:29.929Z,20.60
2023-05-12T11:49:09.930Z,20.70
2023-05-12T11:51:45.889Z,20.80
2023-05-12T11:54:18.621Z,20.80
2023-05-12T11:56:53.832Z,20.90
2023-05-12T11:59:34.454Z,21.00
2023-05-12T12:02:07.762Z,21.00
2023-05-12T12:04:41.862Z,21.10
2023-05-12T12:07:14.777Z,21.00
2023-05-12T12:09:47.248Z,20.90
2023-05-12T12:12:20.007Z,20.80
2023-05-12T12:14:52.508Z,20.70
2023-05-12T12:17:30.844Z,20.60
2023-05-12T12:20:04.261Z,20.50
2023-05-12T12:22:37.094Z,20.60
2023-05-12T12:25:09.866Z,20.70
2023-05-12T12:27:42.827Z,20.60
2023-05-12T12:30:17.028Z,20.70
2023-05-12T12:32:50.217Z,20.80
2023-05-12T12:35:24.469Z,20.90
2023-05-12T12:38:00.570Z,20.90
2023-05-12T12:40:33.089Z,20.90
2023-05-12T12:43:06.341Z,20.90
2023-05-12T12:45:38.780Z,20.90
2023-05-12T12:48:11.982Z,20.90
2023-05-12T12:50:44.667Z,20.90
2023-05-12T12:53:18.060Z,21.00
2023-05-12T12:55:53.413Z,21.00
2023-05-12T12:58:26.292Z,21.00
2023-05-12T13:00:59.274Z,21.00
2023-05-12T13:03:32.137Z,21.00
2023-05-12T13:06:13.888Z,21.00
2023-05-12T13:08:47.771Z,21.00
2023-05-12T13:11:20.331Z,21.00
2023-05-12T13:13:53.213Z,21.00
2023-05-12T13:16:25.777Z,21.00
2023-05-12T13:19:04.064Z,21.10
2023-05-12T13:21:37.919Z,21.00
2023-05-12T13:24:10.854Z,21.10
2023-05-12T13:26:46.454Z,21.10
2023-05-12T13:29:19.556Z,21.10
2023-05-12T13:31:52.234Z,21.10
2023-05-12T13:34:25.212Z,21.00
2023-05-12T13:36:57.742Z,21.10
2023-05-12T13:39:33.152Z,21.20
2023-05-12T13:42:06.151Z,21.20
2023-05-12T13:44:38.993Z,21.20
2023-05-12T13:47:11.646Z,21.20
2023-05-12T13:49:44.685Z,21.20
2023-05-12T13:52:17.198Z,21.20
2023-05-12T13:54:50.196Z,21.20
2023-05-12T13:57:22.780Z,21.30
2023-05-12T13:59:57.931Z,21.30
2023-05-12T14:02:30.570Z,21.30
2023-05-12T14:05:04.106Z,21.20
2023-05-12T14:07:36.790Z,21.20
2023-05-12T14:10:10.523Z,21.20
2023-05-12T14:12:45.268Z,21.10
2023-05-12T14:17:54.505Z,21.00
2023-05-12T14:20:27.404Z,21.00
2023-05-12T14:23:00.053Z,21.10
2023-05-12T14:25:32.907Z,21.10
2023-05-12T14:28:05.533Z,21.10
2023-05-12T14:30:42.085Z,21.00
2023-05-12T14:33:17.746Z,21.20
2023-05-12T14:36:03.119Z,21.70
2023-05-12T14:38:36.359Z,22.10
2023-05-12T14:41:09.742Z,22.80
2023-05-12T14:43:42.300Z,23.60
2023-05-12T14:46:15.330Z,24.50
2023-05-12T14:48:48.912Z,25.40
2023-05-12T14:51:21.714Z,26.20
2023-05-12T14:53:54.487Z,27.00
2023-05-12T14:56:27.419Z,27.60
2023-05-12T14:59:00.504Z,28.20
2023-05-12T15:01:36.051Z,28.80
2023-05-12T15:04:08.681Z,29.20
2023-05-12T15:06:45.418Z,29.70
2023-05-12T15:09:20.289Z,29.80
2023-05-12T15:11:53.252Z,30.00
2023-05-12T15:14:30.795Z,30.20
2023-05-12T15:17:06.126Z,30.60
2023-05-12T15:19:38.806Z,30.80
2023-05-12T15:22:22.969Z,31.00
2023-05-12T15:25:13.700Z,31.60
2023-05-12T15:27:46.610Z,31.80
2023-05-12T15:30:27.617Z,32.00
2023-05-12T15:33:04.472Z,32.30
2023-05-12T15:35:37.323Z,33.20
2023-05-12T15:38:10.554Z,33.10
2023-05-12T15:44:43.764Z,33.60
2023-05-12T15:47:16.752Z,33.80
2023-05-12T15:49:49.776Z,34.00
2023-05-12T15:52:23.024Z,34.50
2023-05-12T15:54:55.481Z,35.00
2023-05-12T15:57:28.236Z,35.20
2023-05-12T16:00:00.850Z,35.10
2023-05-12T16:02:33.842Z,34.80
2023-05-12T16:05:07.304Z,34.80
2023-05-12T16:07:40.299Z,35.00
2023-05-12T16:10:12.797Z,34.60
2023-05-12T16:12:46.208Z,34.40
2023-05-12T16:15:19.728Z,34.40
2023-05-12T16:17:52.905Z,34.50
2023-05-12T16:20:25.467Z,34.60
2023-05-12T16:22:58.443Z,34.60
2023-05-12T16:25:31.053Z,34.60
2023-05-12T16:28:04.539Z,34.70
2023-05-12T16:30:37.828Z,34.20
2023-05-12T16:33:10.730Z,33.70
2023-05-12T16:35:43.285Z,33.80
2023-05-12T16:38:16.050Z,33.60
2023-05-12T16:40:49.265Z,33.80
2023-05-12T16:43:22.008Z,33.90
2023-05-12T16:46:02.391Z,33.60
2023-05-12T16:48:35.589Z,33.50
2023-05-12T16:51:12.707Z,33.80
2023-05-12T16:53:45.616Z,33.70
2023-05-12T16:56:18.164Z,34.00
2023-05-12T16:58:53.456Z,34.20
2023-05-12T17:01:26.006Z,34.10
2023-05-12T17:07:24.463Z,33.70
2023-05-12T17:09:57.436Z,33.70
2023-05-12T17:12:30.925Z,33.60
2023-05-12T17:15:22.092Z,33.70
2023-05-12T17:17:54.633Z,33.60
2023-05-12T17:20:28.961Z,33.70
2023-05-12T17:23:01.502Z,33.90
2023-05-12T17:25:34.240Z,33.50
2023-05-12T17:28:06.721Z,33.60
2023-05-12T17:30:39.778Z,33.20
2023-05-12T17:33:15.519Z,32.60
2023-05-12T17:36:03.830Z,30.60
2023-05-12T17:38:41.945Z,28.90
2023-05-12T17:41:16.199Z,27.20
2023-05-12T17:43:48.711Z,26.00
2023-05-12T17:46:21.594Z,25.00
2023-05-12T17:48:54.159Z,24.10
2023-05-12T17:51:28.249Z,23.40
2023-05-12T17:54:00.735Z,22.80
2023-05-12T17:56:34.852Z,22.20
2023-05-12T17:59:07.335Z,21.70
2023-05-12T18:01:43.131Z,21.30
2023-05-12T18:04:15.779Z,20.90
2023-05-12T18:06:50.255Z,20.60
2023-05-12T18:09:25.802Z,20.20
2023-05-12T18:11:58.924Z,19.90
2023-05-12T18:14:31.505Z,19.70
2023-05-12T18:17:04.426Z,19.30
2023-05-12T18:19:36.967Z,19.10
2023-05-12T18:22:09.770Z,18.80
2023-05-12T18:24:42.260Z,18.60
2023-05-12T18:27:15.033Z,18.40
2023-05-12T18:29:47.532Z,18.20
2023-05-12T18:32:20.327Z,17.90
2023-05-12T18:34:52.870Z,17.60
2023-05-12T18:37:25.990Z,17.30
2023-05-12T18:39:58.657Z,17.10
2023-05-12T18:42:31.562Z,16.90
2023-05-12T18:45:04.430Z,16.70
2023-05-12T18:47:37.667Z,16.50
2023-05-12T18:50:12.062Z,16.40
2023-05-12T18:52:47.441Z,16.20
2023-05-12T18:55:20.332Z,16.00
2023-05-12T18:57:53.302Z,15.90
2023-05-12T19:00:31.875Z,15.70
2023-05-12T19:03:05.111Z,15.60
2023-05-12T19:05:38.938Z,15.40
2023-05-12T19:08:15.057Z,15.30
2023-05-12T19:10:48.475Z,15.10
2023-05-12T19:13:29.239Z,15.00
2023-05-12T19:16:01.734Z,14.90
2023-05-12T19:18:34.826Z,14.80
2023-05-12T19:21:07.379Z,14.80
2023-05-12T19:23:40.219Z,14.80
2023-05-12T19:26:12.769Z,14.80
2023-05-12T19:28:45.753Z,14.80
2023-05-12T19:31:18.278Z,14.80
2023-05-12T19:33:54.472Z,14.70
2023-05-12T19:36:28.898Z,14.70
2023-05-12T19:39:05.013Z,14.60
2023-05-12T19:41:37.601Z,14.50
2023-05-12T19:44:10.359Z,14.40
2023-05-12T19:46:48.872Z,14.30
2023-05-12T19:49:21.588Z,14.30
2023-05-12T19:51:54.090Z,14.20
2023-05-12T19:54:26.937Z,14.10
2023-05-12T19:56:59.446Z,14.00
2023-05-12T19:59:32.267Z,13.90
2023-05-12T20:02:05.906Z,13.90
2023-05-12T20:04:38.713Z,13.80
2023-05-12T20:07:11.226Z,13.60
2023-05-12T20:09:45.674Z,13.60
2023-05-12T20:12:18.531Z,13.50
2023-05-12T20:14:51.350Z,13.40
2023-05-12T20:17:23.952Z,13.40
2023-05-12T20:20:01.332Z,13.30
2023-05-12T20:22:34.072Z,13.20
2023-05-12T20:25:07.165Z,13.10
2023-05-12T20:27:39.724Z,13.10
2023-05-12T20:30:13.278Z,13.00
2023-05-12T20:32:46.147Z,12.90
2023-05-12T20:35:19.350Z,12.90
2023-05-12T20:37:52.058Z,12.90
2023-05-12T20:40:24.864Z,12.90
2023-05-12T20:42:57.314Z,12.90
2023-05-12T20:45:30.330Z,12.90
2023-05-12T20:48:03.085Z,12.80
2023-05-12T20:50:36.039Z,12.80
2023-05-12T20:53:08.731Z,12.80
2023-05-12T20:55:44.629Z,12.80
2023-05-12T20:58:17.196Z,12.80
2023-05-12T21:00:49.954Z,12.80
2023-05-12T21:03:23.976Z,12.80
2023-05-12T21:05:56.711Z,12.80
2023-05-12T21:08:29.310Z,12.70
2023-05-12T21:11:02.135Z,12.70
2023-05-12T21:13:34.632Z,12.70
2023-05-12T21:16:07.518Z,12.60
2023-05-12T21:18:40.123Z,12.60
2023-05-12T21:21:13.254Z,12.50
2023-05-12T21:23:46.417Z,12.50
2023-05-12T21:26:19.182Z,12.40
2023-05-12T21:28:51.722Z,12.40
2023-05-12T21:31:24.565Z,12.30
2023-05-12T21:33:57.101Z,12.30
2023-05-12T21:36:30.042Z,12.20
2023-05-12T21:39:03.242Z,12.20
2023-05-12T21:41:38.398Z,12.20
2023-05-12T21:44:11.435Z,12.10
2023-05-12T21:46:44.377Z,12.00
2023-05-12T21:49:17.065Z,12.00
2023-05-12T21:51:49.941Z,11.90
2023-05-12T21:54:22.537Z,12.00
2023-05-12T21:56:55.452Z,12.00
2023-05-12T21:59:29.189Z,12.00
2023-05-12T22:02:02.201Z,12.00
2023-05-12T22:04:34.693Z,12.00
2023-05-12T22:07:07.905Z,12.00
2023-05-12T22:09:40.343Z,11.90
2023-05-12T22:12:18.601Z,11.80
2023-05-12T22:14:51.065Z,11.80
2023-05-12T22:17:23.918Z,11.80
2023-05-12T22:19:56.559Z,11.80
2023-05-12T22:22:29.348Z,11.70
2023-05-12T22:25:01.862Z,11.70
2023-05-12T22:27:43.806Z,11.70
2023-05-12T22:30:18.093Z,11.50
2023-05-12T22:32:52.062Z,11.50
2023-05-12T22:35:24.562Z,11.40
2023-05-12T22:37:57.348Z,11.40
2023-05-12T22:40:30.739Z,11.40
2023-05-12T22:43:03.585Z,11.30
2023-05-12T22:45:36.453Z,11.30
2023-05-12T22:48:09.852Z,11.20
2023-05-12T22:50:42.368Z,11.10
2023-05-12T22:53:15.401Z,11.00
2023-05-12T22:55:48.070Z,11.00
2023-05-12T22:58:20.994Z,11.00
2023-05-12T23:00:53.672Z,10.90
2023-05-12T23:03:26.559Z,10.90
2023-05-12T23:05:59.164Z,10.80
2023-05-12T23:08:31.899Z,10.80
2023-05-12T23:11:04.389Z,10.80
2023-05-12T23:13:37.175Z,10.80
2023-05-12T23:16:09.730Z,10.80
2023-05-12T23:18:42.645Z,10.80
2023-05-12T23:21:15.514Z,10.70
2023-05-12T23:23:48.291Z,10.70
2023-05-12T23:26:20.891Z,10.60
2023-05-12T23:28:53.707Z,10.60
2023-05-12T23:31:26.638Z,10.60
2023-05-12T23:33:59.392Z,10.60
2023-05-12T23:36:31.903Z,10.50
2023-05-12T23:39:04.685Z,10.50
2023-05-12T23:41:37.179Z,10.50
2023-05-12T23:44:10.391Z,10.50
2023-05-12T23:46:42.983Z,10.40
2023-05-12T23:49:16.075Z,10.40
2023-05-12T23:51:48.584Z,10.40
2023-05-12T23:54:21.698Z,10.40
2023-05-12T23:56:54.214Z,10.30
2023-05-12T23:59:27.043Z,10.30
